Aviation Digital Data Service (ADDS)

Output produced by METARs form (0504 UTC 27 July 2017)
found at http://www.aviationweather.gov/adds/metars/
 
METAR text: KLVK 270453Z 31007KT 10SM CLR 22/11 A2996 RMK AO2 SLP143 T02220106
Conditions at: KLVK (LIVERMORE , CA, US) observed 0453 UTC 27 July 2017
Temperature: 22.2°C (72°F)
Dewpoint: 10.6°C (51°F) [RH = 48%]
Pressure (altimeter): 29.96 inches Hg (1014.6 mb)
[Sea-level pressure: 1014.3 mb]
Winds: from the NW (310 degrees) at 8 MPH (7 knots; 3.6 m/s)
Visibility: 10 or more miles (16+ km)
Ceiling: at least 12,000 feet AGL
Clouds: sky clear below 12,000 feet AGL
Weather: no significant weather observed at this time

METAR text: KLVK 270353Z 30008KT 10SM CLR 24/10 A2995 RMK AO2 SLP138 T02390100
Conditions at: KLVK (LIVERMORE , CA, US) observed 0353 UTC 27 July 2017
Temperature: 23.9°C (75°F)
Dewpoint: 10.0°C (50°F) [RH = 41%]
Pressure (altimeter): 29.95 inches Hg (1014.3 mb)
[Sea-level pressure: 1013.8 mb]
Winds: from the WNW (300 degrees) at 9 MPH (8 knots; 4.2 m/s)
Visibility: 10 or more miles (16+ km)
Ceiling: at least 12,000 feet AGL
Clouds: sky clear below 12,000 feet AGL
Weather: no significant weather observed at this time

METAR text: KLVK 270253Z 28009KT 10SM CLR 26/09 A2994 RMK AO2 SLP135 T02560089 55000
Conditions at: KLVK (LIVERMORE , CA, US) observed 0253 UTC 27 July 2017
Temperature: 25.6°C (78°F)
Dewpoint: 8.9°C (48°F) [RH = 35%]
Pressure (altimeter): 29.94 inches Hg (1014.0 mb)
[Sea-level pressure: 1013.5 mb]
Winds: from the W (280 degrees) at 10 MPH (9 knots; 4.7 m/s)
Visibility: 10 or more miles (16+ km)
Ceiling: at least 12,000 feet AGL
Clouds: sky clear below 12,000 feet AGL
Weather: no significant weather observed at this time

METAR text: KLVK 270153Z 28012KT 10SM CLR 28/07 A2993 RMK AO2 SLP132 T02780072
Conditions at: KLVK (LIVERMORE , CA, US) observed 0153 UTC 27 July 2017
Temperature: 27.8°C (82°F)
Dewpoint: 7.2°C (45°F) [RH = 27%]
Pressure (altimeter): 29.93 inches Hg (1013.6 mb)
[Sea-level pressure: 1013.2 mb]
Winds: from the W (280 degrees) at 14 MPH (12 knots; 6.2 m/s)
Visibility: 10 or more miles (16+ km)
Ceiling: at least 12,000 feet AGL
Clouds: sky clear below 12,000 feet AGL
Weather: no significant weather observed at this time

METAR text: KLVK 270053Z 27011KT 10SM CLR 30/08 A2993 RMK AO2 SLP132 T03000083
Conditions at: KLVK (LIVERMORE , CA, US) observed 0053 UTC 27 July 2017
Temperature: 30.0°C (86°F)
Dewpoint: 8.3°C (47°F) [RH = 26%]
Pressure (altimeter): 29.93 inches Hg (1013.6 mb)
[Sea-level pressure: 1013.2 mb]
Winds: from the W (270 degrees) at 13 MPH (11 knots; 5.7 m/s)
Visibility: 10 or more miles (16+ km)
Ceiling: at least 12,000 feet AGL
Clouds: sky clear below 12,000 feet AGL
Weather: no significant weather observed at this time

METAR text: KLVK 262353Z 28010KT 10SM CLR 32/12 A2994 RMK AO2 SLP135 T03170117 56016
Conditions at: KLVK (LIVERMORE , CA, US) observed 2353 UTC 26 July 2017
Temperature: 31.7°C (89°F)
Dewpoint: 11.7°C (53°F) [RH = 29%]
Pressure (altimeter): 29.94 inches Hg (1014.0 mb)
[Sea-level pressure: 1013.5 mb]
Winds: from the W (280 degrees) at 12 MPH (10 knots; 5.2 m/s)
Visibility: 10 or more miles (16+ km)
Ceiling: at least 12,000 feet AGL
Clouds: sky clear below 12,000 feet AGL
Weather: no significant weather observed at this time

METAR text: KLVK 262253Z 28010KT 10SM CLR 32/12 A2995 RMK AO2 SLP139 T03220117
Conditions at: KLVK (LIVERMORE , CA, US) observed 2253 UTC 26 July 2017
Temperature: 32.2°C (90°F)
Dewpoint: 11.7°C (53°F) [RH = 29%]
Pressure (altimeter): 29.95 inches Hg (1014.3 mb)
[Sea-level pressure: 1013.9 mb]
Winds: from the W (280 degrees) at 12 MPH (10 knots; 5.2 m/s)
Visibility: 10 or more miles (16+ km)
Ceiling: at least 12,000 feet AGL
Clouds: sky clear below 12,000 feet AGL
Weather: no significant weather observed at this time

METAR text: KLVK 262153Z 29008KT 10SM CLR 31/11 A2997 RMK AO2 SLP144 T03110106
Conditions at: KLVK (LIVERMORE , CA, US) observed 2153 UTC 26 July 2017
Temperature: 31.1°C (88°F)
Dewpoint: 10.6°C (51°F) [RH = 28%]
Pressure (altimeter): 29.97 inches Hg (1015.0 mb)
[Sea-level pressure: 1014.4 mb]
Winds: from the WNW (290 degrees) at 9 MPH (8 knots; 4.2 m/s)
Visibility: 10 or more miles (16+ km)
Ceiling: at least 12,000 feet AGL
Clouds: sky clear below 12,000 feet AGL
Weather: no significant weather observed at this time